Time;durP1;ratioP1;P1;durP2;ratioP2;P2;SDS_P1;SDS_P2;PMS_P1;PMS_P2;Temp;Humidity;BMP_temperature;BMP_pressure;BME280_temperature;BME280_humidity;BME280_pressure;Samples;Min_cycle;Max_cycle;Signal;HPM_P1;HPM_P2
2022/05/16 00:09:05;;;;;;;1.38;1.27;;;;;;;13.68;68.12;99891.38;4919107;28;20513;-66
2022/05/16 00:11:58;;;;;;;1.13;0.90;;;;;;;13.59;68.68;99888.91;4938879;29;20055;-65
2022/05/16 00:14:27;;;;;;;0.90;0.90;;;;;;;13.60;68.74;99891.50;4938799;29;20059;-65
2022/05/16 00:16:58;;;;;;;0.90;0.88;;;;;;;13.68;68.88;99888.81;4938746;29;20075;-65
2022/05/16 00:19:27;;;;;;;1.23;1.13;;;;;;;13.77;68.73;99888.75;4938935;29;20047;-66
2022/05/16 00:21:56;;;;;;;1.85;1.25;;;;;;;13.82;68.46;99881.88;4938630;29;20056;-66
2022/05/16 00:24:28;;;;;;;0.98;0.73;;;;;;;13.85;68.06;99889.50;4938812;29;20056;-66
2022/05/16 00:27:02;;;;;;;0.80;0.80;;;;;;;13.84;68.03;99882.69;4921751;29;20063;-66
2022/05/16 00:29:31;;;;;;;1.25;1.15;;;;;;;13.82;67.94;99894.69;4938497;29;20101;-65
2022/05/16 00:32:00;;;;;;;0.73;0.73;;;;;;;13.81;67.88;99890.41;4938433;29;20051;-65
2022/05/16 00:34:29;;;;;;;1.40;1.27;;;;;;;13.75;68.02;99880.22;4938467;29;20051;-66
2022/05/16 00:36:58;;;;;;;1.60;1.40;;;;;;;13.71;68.31;99878.53;4938348;29;20059;-66
2022/05/16 00:39:33;;;;;;;0.93;0.68;;;;;;;13.72;68.02;99885.38;4938290;29;20138;-66
2022/05/16 00:42:03;;;;;;;1.70;0.77;;;;;;;13.65;68.17;99879.47;4938324;29;20052;-65
2022/05/16 00:44:33;;;;;;;0.77;0.77;;;;;;;13.59;68.28;99884.66;4938286;29;20052;-65
2022/05/16 00:47:02;;;;;;;0.60;0.60;;;;;;;13.52;68.56;99882.16;4938500;29;20138;-65
2022/05/16 00:49:34;;;;;;;;;;;;;;;13.55;68.53;99887.25;4938492;29;20063;-66
2022/05/16 00:52:08;;;;;;;1.58;1.35;;;;;;;13.61;68.16;99882.06;4938567;29;19927;-66
2022/05/16 00:54:46;;;;;;;5.40;1.40;;;;;;;13.63;67.95;99880.34;4921953;29;20494;-66
2022/05/16 00:57:20;;;;;;;0.80;0.80;;;;;;;13.46;68.31;99862.53;4938030;29;20060;-66
2022/05/16 00:59:57;;;;;;;1.00;0.90;;;;;;;13.56;68.35;99884.66;4937925;29;20134;-65
2022/05/16 01:05:08;;;;;;;2.67;1.25;;;;;;;13.40;68.72;99883.97;4938118;29;20062;-65
2022/05/16 01:07:40;;;;;;;0.95;0.90;;;;;;;13.36;68.79;99882.28;4938178;29;20142;-66
2022/05/16 01:10:18;;;;;;;0.60;0.60;;;;;;;13.28;68.60;99884.09;4927074;29;20060;-66
2022/05/16 01:12:51;;;;;;;1.08;1.02;;;;;;;13.25;68.94;99884.09;4919035;29;20506;-66
2022/05/16 01:15:31;;;;;;;2.20;1.35;;;;;;;13.20;68.95;99893.53;4919024;29;20411;-66
2022/05/16 01:18:04;;;;;;;0.68;0.68;;;;;;;13.12;69.33;99891.91;4918612;29;20052;-66
2022/05/16 01:20:49;;;;;;;0.80;0.80;;;;;;;13.09;69.25;99889.38;4918900;29;20051;-65
2022/05/16 01:23:23;;;;;;;1.52;1.42;;;;;;;13.04;69.26;99874.00;4918405;29;20071;-66
2022/05/16 01:25:54;;;;;;;1.02;1.00;;;;;;;13.22;69.44;99884.13;4918461;29;20056;-66
2022/05/16 01:28:27;;;;;;;0.60;0.60;;;;;;;13.29;69.15;99879.81;4917251;29;20518;-66
2022/05/16 01:30:56;;;;;;;1.33;1.23;;;;;;;13.24;69.25;99892.66;4918389;29;20076;-65
2022/05/16 01:33:26;;;;;;;0.70;0.70;;;;;;;13.21;69.16;99887.56;4918663;29;20542;-66
2022/05/16 01:35:55;;;;;;;0.90;0.85;;;;;;;13.29;69.23;99888.31;4918633;29;20694;-65
2022/05/16 01:38:27;;;;;;;1.23;1.13;;;;;;;13.32;68.91;99885.75;4918281;29;20503;-65
2022/05/16 01:40:58;;;;;;;0.77;0.77;;;;;;;13.34;68.80;99883.19;4918185;29;20060;-66
2022/05/16 01:43:39;;;;;;;0.65;0.65;;;;;;;13.28;68.72;99889.22;4918381;29;20143;-65
2022/05/16 01:46:09;;;;;;;0.80;0.80;;;;;;;13.33;68.62;99879.78;4918451;29;20075;-65
2022/05/16 01:48:41;;;;;;;4.13;1.60;;;;;;;13.35;68.71;99893.41;4918105;29;20052;-65
2022/05/16 01:51:20;;;;;;;0.57;0.57;;;;;;;13.33;68.46;99878.91;4918294;29;20079;-65
2022/05/16 01:53:55;;;;;;;0.70;0.70;;;;;;;13.40;68.32;99885.69;4918347;29;20059;-66
2022/05/16 01:56:25;;;;;;;0.77;0.77;;;;;;;13.40;68.36;99886.53;4917980;29;20085;-65
2022/05/16 01:58:54;;;;;;;0.52;0.52;;;;;;;13.40;68.25;99883.13;4917819;29;20076;-66
2022/05/16 02:01:23;;;;;;;0.73;0.73;;;;;;;13.38;68.08;99883.16;4918001;29;20052;-66
2022/05/16 02:03:55;;;;;;;0.80;0.80;;;;;;;13.33;68.28;99887.47;4917994;29;20074;-66
2022/05/16 02:06:25;;;;;;;5.90;1.45;;;;;;;13.31;68.42;99881.50;4918110;29;20052;-66
2022/05/16 02:08:56;;;;;;;1.35;0.82;;;;;;;13.27;68.22;99882.38;4918337;29;20495;-65
2022/05/16 02:11:29;;;;;;;1.17;1.08;;;;;;;13.28;68.57;99878.97;4936932;29;20071;-65
2022/05/16 02:14:03;;;;;;;3.50;0.93;;;;;;;13.24;68.29;99882.41;4936331;29;20052;-65
2022/05/16 02:16:31;;;;;;;1.70;1.38;;;;;;;13.23;68.33;99878.16;4936659;29;20119;-67
2022/05/16 02:19:06;;;;;;;6.60;1.50;;;;;;;13.19;68.24;99873.91;4936923;29;20044;-66
2022/05/16 02:26:58;;;;;;;0.60;0.60;;;;;;;13.16;68.18;99886.75;4936545;29;20059;-65
2022/05/16 02:29:34;;;;;;;1.67;1.58;;;;;;;13.18;68.29;99874.75;4936754;29;20174;-65
2022/05/16 02:32:05;;;;;;;0.68;0.68;;;;;;;12.95;68.10;99838.19;4936398;29;20138;-65
2022/05/16 02:34:38;;;;;;;0.93;0.73;;;;;;;13.15;68.18;99882.47;4936426;29;20055;-66
2022/05/16 02:37:10;;;;;;;3.67;2.95;;;;;;;13.13;68.23;99873.94;4935248;29;20047;-66
2022/05/16 02:39:44;;;;;;;4.95;1.08;;;;;;;13.11;67.95;99860.31;4936702;29;20465;-66
2022/05/16 02:42:15;;;;;;;1.23;1.13;;;;;;;13.15;68.45;99872.22;4936265;29;20502;-66
2022/05/16 02:44:45;;;;;;;1.35;1.25;;;;;;;13.09;68.16;99862.03;4936760;29;20047;-65
2022/05/16 02:47:17;;;;;;;0.75;0.75;;;;;;;13.08;68.13;99860.31;4936905;29;20195;-65
2022/05/16 02:49:55;;;;;;;1.08;1.02;;;;;;;13.03;68.44;99867.16;4936269;29;20074;-67
2022/05/16 02:52:27;;;;;;;0.60;0.60;;;;;;;13.02;68.49;99860.34;4936246;29;20059;-66
2022/05/16 02:55:01;;;;;;;1.15;1.05;;;;;;;13.06;68.43;99861.19;4936176;29;20486;-66
2022/05/16 02:57:31;;;;;;;0.70;0.70;;;;;;;13.05;68.58;99865.41;4936526;29;20063;-65
2022/05/16 03:00:06;;;;;;;5.35;2.15;;;;;;;13.04;68.60;99858.63;4936469;29;20055;-66
2022/05/16 03:02:36;;;;;;;2.10;1.55;;;;;;;13.03;68.80;99851.78;4936222;29;20067;-66
2022/05/16 03:05:06;;;;;;;0.60;0.60;;;;;;;13.08;68.54;99850.06;4936051;29;20052;-67
2022/05/16 03:07:36;;;;;;;1.38;1.25;;;;;;;13.08;68.62;99850.06;4936182;29;20067;-66
2022/05/16 03:10:08;;;;;;;2.15;1.10;;;;;;;13.15;68.58;99856.84;4935858;29;20527;-65
2022/05/16 03:12:40;;;;;;;0.55;0.55;;;;;;;13.17;68.72;99865.34;4936087;29;20055;-67
2022/05/16 03:15:10;;;;;;;5.50;1.27;;;;;;;13.19;68.59;99873.91;4936307;29;20114;-66
2022/05/16 03:17:49;;;;;;;0.57;0.57;;;;;;;13.16;68.66;99878.19;4935929;29;20070;-66
2022/05/16 03:20:29;;;;;;;0.60;0.60;;;;;;;13.18;68.89;99879.88;4936354;29;20060;-66
2022/05/16 03:23:14;;;;;;;0.68;0.68;;;;;;;13.13;68.64;99879.06;4936300;29;20502;-66
2022/05/16 03:25:50;;;;;;;1.17;0.95;;;;;;;13.19;68.66;99878.19;4938456;29;20486;-65
2022/05/16 03:28:19;;;;;;;1.48;1.38;;;;;;;13.23;68.45;99878.16;4939703;29;20126;-66
2022/05/16 03:30:49;;;;;;;0.70;0.70;;;;;;;13.23;68.55;99870.44;4939669;29;20055;-67
2022/05/16 03:33:27;;;;;;;0.68;0.68;;;;;;;13.29;68.51;99874.69;4939834;29;20286;-65
2022/05/16 03:35:57;;;;;;;0.47;0.47;;;;;;;13.31;68.27;99871.25;4938496;29;20052;-65
2022/05/16 03:41:09;;;;;;;3.40;1.38;;;;;;;13.35;68.56;99872.91;4939478;29;19923;-67
2022/05/16 03:43:42;;;;;;;0.60;0.60;;;;;;;13.37;68.50;99878.88;4939426;29;20052;-66
2022/05/16 03:46:12;;;;;;;0.70;0.70;;;;;;;13.39;68.27;99874.56;4939216;29;20120;-67
2022/05/16 03:48:41;;;;;;;1.02;1.02;;;;;;;13.46;68.06;99875.34;4939310;29;20501;-66
2022/05/16 03:51:11;;;;;;;0.73;0.73;;;;;;;13.53;68.36;99868.47;4939206;29;20055;-67
2022/05/16 03:53:46;;;;;;;1.10;1.00;;;;;;;13.59;68.18;99873.53;4939220;29;20099;-66
2022/05/16 03:56:26;;;;;;;0.80;0.75;;;;;;;13.58;67.61;99874.41;4939125;29;20047;-66
2022/05/16 03:58:56;;;;;;;0.80;0.80;;;;;;;13.54;67.58;99870.16;4939422;29;20051;-67
2022/05/16 04:01:27;;;;;;;0.50;0.50;;;;;;;13.57;67.69;99875.28;4939084;29;20060;-65
2022/05/16 04:03:57;;;;;;;1.00;0.90;;;;;;;13.62;67.63;99868.38;4939547;29;20063;-66
2022/05/16 04:06:27;;;;;;;;;;;;;;;13.67;67.58;99864.91;4939818;29;20132;-66
2022/05/16 04:08:56;;;;;;;1.65;1.55;;;;;;;13.68;67.79;99870.88;4938616;29;20005;-66
2022/05/16 04:11:26;;;;;;;0.98;0.88;;;;;;;13.62;68.38;99873.50;4939192;29;20414;-66
2022/05/16 04:13:55;;;;;;;1.08;1.00;;;;;;;13.68;68.38;99874.28;4938830;29;20122;-67
2022/05/16 04:16:24;;;;;;;0.52;0.52;;;;;;;13.79;68.21;99876.75;4938601;29;20056;-66
2022/05/16 04:18:53;;;;;;;1.53;1.20;;;;;;;13.91;68.03;99874.06;4938697;29;20092;-67
2022/05/16 04:21:23;;;;;;;0.75;0.68;;;;;;;14.03;67.67;99881.63;4938890;29;20127;-66
2022/05/16 04:23:55;;;;;;;1.45;1.15;;;;;;;14.11;67.25;99879.78;4938592;29;20056;-66
2022/05/16 04:26:27;;;;;;;0.80;0.80;;;;;;;14.24;67.00;99888.22;4938487;29;20062;-66
2022/05/16 04:28:57;;;;;;;0.90;0.90;;;;;;;14.36;66.27;99896.66;4938603;29;20071;-67
2022/05/16 04:31:25;;;;;;;;;;;;;;;14.49;66.13;99893.03;4939206;29;20098;-66
2022/05/16 04:33:54;;;;;;;0.93;0.85;;;;;;;14.64;65.91;99887.72;4938736;29;19923;-66
2022/05/16 04:36:23;;;;;;;0.80;0.80;;;;;;;14.71;65.83;99886.75;4937756;29;20056;-67
2022/05/16 04:38:53;;;;;;;0.60;0.60;;;;;;;14.62;65.77;99863.75;4938368;29;20050;-66
2022/05/16 04:44:06;;;;;;;3.60;0.85;;;;;;;15.09;65.17;99891.31;4938274;29;20052;-66
2022/05/16 04:46:35;;;;;;;12.95;1.73;;;;;;;15.18;65.01;99887.75;4938092;29;20075;-67
2022/05/16 04:49:04;;;;;;;2.08;1.02;;;;;;;15.29;64.72;99883.28;4938097;29;20099;-66
2022/05/16 04:51:33;;;;;;;2.10;0.97;;;;;;;15.37;64.38;99886.59;4938681;29;20075;-67
2022/05/16 04:54:03;;;;;;;2.47;1.25;;;;;;;15.43;64.15;99886.47;4938417;29;20494;-66
2022/05/16 04:56:34;;;;;;;0.60;0.60;;;;;;;15.38;63.80;99857.41;4938042;29;20107;-67
2022/05/16 04:59:04;;;;;;;0.63;0.63;;;;;;;15.71;63.24;99886.88;4937878;29;20052;-67
2022/05/16 05:01:33;;;;;;;0.80;0.80;;;;;;;15.79;63.15;99885.84;4938567;29;20055;-66
2022/05/16 05:04:02;;;;;;;0.50;0.50;;;;;;;15.90;62.41;99889.09;4937953;29;20051;-66
2022/05/16 05:06:32;;;;;;;1.40;1.30;;;;;;;16.05;62.13;99893.09;4937798;29;20092;-66
2022/05/16 05:09:00;;;;;;;1.20;1.08;;;;;;;16.17;61.78;99897.16;4920638;29;20052;-66
2022/05/16 05:16:49;;;;;;;0.93;0.90;;;;;;;16.54;60.01;99892.97;4937614;29;20103;-67
2022/05/16 05:19:18;;;;;;;0.77;0.77;;;;;;;16.65;59.46;99891.00;4937894;29;20094;-66
2022/05/16 05:21:50;;;;;;;4.97;1.38;;;;;;;16.74;59.44;99898.53;4937647;29;20048;-66
2022/05/16 05:24:19;;;;;;;0.85;0.85;;;;;;;16.92;59.22;99895.53;4937773;29;20055;-66
2022/05/16 05:26:48;;;;;;;0.80;0.80;;;;;;;16.70;59.10;99833.31;4937495;29;20052;-66
2022/05/16 05:29:19;;;;;;;3.05;1.02;;;;;;;17.28;58.82;99901.56;4937164;29;20135;-67
2022/05/16 05:31:48;;;;;;;1.27;1.17;;;;;;;17.36;58.16;99903.06;4937316;29;20079;-66
2022/05/16 05:34:17;;;;;;;1.00;0.90;;;;;;;17.46;58.00;99900.25;4937225;29;20054;-66
2022/05/16 05:36:46;;;;;;;2.67;1.60;;;;;;;17.55;57.19;99897.47;4937486;29;20063;-67
2022/05/16 05:39:17;;;;;;;;;;;;;;;17.63;56.85;99900.72;4937637;29;20051;-66
2022/05/16 05:41:45;;;;;;;8.77;1.33;;;;;;;17.70;56.47;99913.44;4937383;29;20262;-67
2022/05/16 05:44:14;;;;;;;5.38;1.23;;;;;;;17.83;56.27;99909.63;4937424;29;20465;-66
2022/05/16 05:46:46;;;;;;;1.45;1.10;;;;;;;17.90;56.24;99905.16;4936812;29;20043;-66
2022/05/16 05:49:15;;;;;;;0.60;0.60;;;;;;;18.01;56.06;99909.16;4936972;29;20054;-67
2022/05/16 05:51:44;;;;;;;0.80;0.80;;;;;;;18.15;55.55;99908.75;4937301;29;20048;-65
2022/05/16 05:54:13;;;;;;;0.85;0.85;;;;;;;18.21;55.08;99911.16;4937143;29;20044;-66
2022/05/16 05:56:52;;;;;;;0.73;0.73;;;;;;;18.28;54.79;99907.53;4937253;29;20056;-66
2022/05/16 05:59:21;;;;;;;0.80;0.80;;;;;;;18.31;54.50;99907.44;4937020;29;20490;-66
2022/05/16 06:01:52;;;;;;;0.88;0.73;;;;;;;18.02;54.12;99854.00;4936758;29;20106;-66
2022/05/16 06:04:21;;;;;;;0.82;0.82;;;;;;;18.53;54.08;99915.44;4937083;29;20082;-66
2022/05/16 06:06:50;;;;;;;0.63;0.60;;;;;;;18.66;53.57;99909.88;4937072;29;20055;-65
2022/05/16 06:09:19;;;;;;;2.15;1.55;;;;;;;18.75;53.10;99913.94;4934622;29;20055;-66
2022/05/16 06:11:49;;;;;;;0.90;0.90;;;;;;;18.79;52.44;99915.50;4917969;29;20060;-66
2022/05/16 06:14:18;;;;;;;0.60;0.60;;;;;;;18.82;52.07;99917.16;4917969;29;20326;-66
2022/05/16 06:17:09;;;;;;;3.85;1.35;;;;;;;18.94;51.58;99916.78;4917944;29;20052;-66
2022/05/16 06:19:40;;;;;;;0.63;0.63;;;;;;;19.07;51.61;99915.53;4917661;29;20052;-66
2022/05/16 06:22:09;;;;;;;0.85;0.82;;;;;;;19.17;51.60;99922.13;4917703;29;20410;-66
2022/05/16 06:27:17;;;;;;;0.73;0.73;;;;;;;19.41;51.59;99916.19;4917073;29;20087;-66
2022/05/16 06:29:46;;;;;;;2.13;1.05;;;;;;;19.48;51.49;99912.50;4917208;29;20063;-66
2022/05/16 06:32:15;;;;;;;0.68;0.68;;;;;;;19.51;51.16;99916.72;4917194;29;20060;-66
2022/05/16 06:34:47;;;;;;;0.55;0.55;;;;;;;19.62;50.28;99919.78;4917280;29;20108;-66
2022/05/16 06:37:18;;;;;;;0.52;0.52;;;;;;;19.69;49.23;99916.09;4917405;29;20078;-66
2022/05/16 06:39:47;;;;;;;0.95;0.88;;;;;;;19.75;49.29;99916.72;4917060;29;20056;-66
2022/05/16 06:42:16;;;;;;;0.50;0.50;;;;;;;19.72;49.51;99880.59;4917204;29;20052;-66
2022/05/16 06:44:45;;;;;;;1.08;0.98;;;;;;;20.00;48.96;99920.16;4917351;29;20046;-66
2022/05/16 06:47:14;;;;;;;0.80;0.80;;;;;;;20.06;48.52;99922.53;4916965;29;20075;-66
2022/05/16 06:49:43;;;;;;;0.75;0.75;;;;;;;20.23;48.32;99916.78;4917284;29;20095;-66
2022/05/16 06:52:16;;;;;;;1.50;1.38;;;;;;;20.47;47.85;99925.41;4916984;29;20080;-66
2022/05/16 06:54:45;;;;;;;0.52;0.52;;;;;;;20.52;47.45;99921.75;4917416;29;20056;-66
2022/05/16 06:57:14;;;;;;;0.77;0.77;;;;;;;20.53;47.20;99925.19;4900358;29;20052;-66
2022/05/16 06:59:44;;;;;;;3.40;1.40;;;;;;;20.57;47.41;99926.75;4902555;29;20056;-66
2022/05/16 07:02:13;;;;;;;0.70;0.70;;;;;;;20.54;47.44;99929.44;4920897;29;20060;-66
2022/05/16 07:04:42;;;;;;;1.73;1.42;;;;;;;20.68;47.58;99937.59;4921426;29;20115;-65
2022/05/16 07:07:12;;;;;;;0.60;0.60;;;;;;;20.75;47.12;99927.81;4920635;29;20135;-66
2022/05/16 07:09:43;;;;;;;1.30;1.20;;;;;;;20.88;46.82;99926.41;4925199;29;20051;-66
2022/05/16 07:12:12;;;;;;;0.80;0.80;;;;;;;20.97;46.82;99926.91;4940139;29;20426;-66
2022/05/16 07:14:42;;;;;;;0.50;0.50;;;;;;;21.15;46.40;99923.63;4939627;29;20126;-65
2022/05/16 07:17:11;;;;;;;1.48;1.25;;;;;;;21.33;46.95;99927.25;4939829;29;20139;-66
2022/05/16 07:19:40;;;;;;;1.10;0.95;;;;;;;21.37;47.82;99918.44;4939881;29;20080;-66
2022/05/16 07:22:11;;;;;;;1.48;1.20;;;;;;;21.40;47.61;99915.72;4939892;29;20044;-66
2022/05/16 07:24:43;;;;;;;1.05;0.95;;;;;;;21.40;47.19;99917.47;4939753;29;20060;-66
2022/05/16 07:29:53;;;;;;;0.88;0.88;;;;;;;21.52;46.63;99923.00;4939515;29;20248;-65
2022/05/16 07:32:22;;;;;;;0.60;0.60;;;;;;;21.57;46.13;99915.00;4939460;29;20063;-66
2022/05/16 07:34:51;;;;;;;0.47;0.47;;;;;;;21.74;45.37;99917.75;4939406;29;20056;-66
2022/05/16 07:37:20;;;;;;;0.60;0.60;;;;;;;21.90;45.03;99924.00;4939268;29;20052;-67
2022/05/16 07:39:51;;;;;;;0.88;0.82;;;;;;;21.87;45.10;99924.13;4939253;29;20058;-65
2022/05/16 07:42:19;;;;;;;1.20;0.90;;;;;;;21.72;44.89;99919.53;4939681;29;20094;-65
2022/05/16 07:44:50;;;;;;;5.03;0.90;;;;;;;21.81;45.16;99919.19;4939202;29;20043;-66
2022/05/16 07:47:21;;;;;;;0.70;0.70;;;;;;;21.99;45.16;99919.25;4939120;29;20052;-67
2022/05/16 07:49:50;;;;;;;0.50;0.50;;;;;;;22.12;46.19;99919.56;4939246;29;20471;-66
2022/05/16 07:52:19;;;;;;;0.68;0.68;;;;;;;22.11;45.75;99923.06;4938998;29;20054;-65
2022/05/16 07:54:50;;;;;;;0.85;0.85;;;;;;;22.31;45.38;99915.25;4939289;29;20458;-65
2022/05/16 07:57:19;;;;;;;0.60;0.60;;;;;;;22.38;44.91;99921.84;4939248;29;20051;-66
2022/05/16 07:59:48;;;;;;;0.52;0.52;;;;;;;22.44;45.54;99915.50;4939116;29;20056;-66
2022/05/16 08:02:17;;;;;;;1.07;0.97;;;;;;;22.43;44.73;99912.09;4938793;29;20518;-65
2022/05/16 08:04:46;;;;;;;0.50;0.50;;;;;;;22.55;44.65;99913.28;4938491;29;20048;-65
2022/05/16 08:07:15;;;;;;;0.93;0.93;;;;;;;22.45;44.84;99915.47;4938732;29;20071;-65
2022/05/16 08:12:33;;;;;;;0.70;0.70;;;;;;;22.55;44.84;99921.94;4938472;29;20056;-65
2022/05/16 08:15:02;;;;;;;1.27;0.80;;;;;;;22.56;44.44;99914.94;4938737;29;20055;-65
2022/05/16 08:17:31;;;;;;;0.68;0.68;;;;;;;22.62;45.20;99920.78;4921725;29;20055;-65
2022/05/16 08:20:00;;;;;;;0.57;0.57;;;;;;;22.83;45.49;99918.06;4938902;29;20233;-65
2022/05/16 08:22:31;;;;;;;0.82;0.80;;;;;;;23.09;45.57;99917.69;4938796;29;20341;-67
2022/05/16 08:25:02;;;;;;;0.90;0.90;;;;;;;23.08;45.47;99913.41;4938832;29;20052;-67
2022/05/16 08:27:37;;;;;;;1.40;1.20;;;;;;;22.94;45.04;99913.22;4938258;29;20139;-66
2022/05/16 08:30:15;;;;;;;1.08;0.98;;;;;;;23.01;44.63;99912.84;4938344;29;20144;-66
2022/05/16 08:32:56;;;;;;;0.65;0.65;;;;;;;23.16;44.77;99916.47;4938438;29;20409;-66
2022/05/16 08:35:25;;;;;;;1.92;0.80;;;;;;;23.25;45.27;99900.41;4938567;29;20051;-66
2022/05/16 08:40:44;;;;;;;0.70;0.68;;;;;;;23.42;42.79;99905.63;4938081;29;20138;-65
2022/05/16 08:43:17;;;;;;;0.75;0.75;;;;;;;23.51;42.11;99909.56;4939010;29;20494;-66
2022/05/16 08:45:54;;;;;;;4.72;1.20;;;;;;;23.52;42.24;99906.03;4938460;29;20066;-66
2022/05/16 08:48:26;;;;;;;0.52;0.52;;;;;;;23.43;43.26;99883.03;4938326;29;20375;-65
2022/05/16 08:51:03;;;;;;;0.63;0.63;;;;;;;23.70;42.84;99898.16;4938537;29;20504;-65
2022/05/16 08:53:38;;;;;;;1.05;0.95;;;;;;;23.76;42.22;99903.03;4938343;29;20062;-66
2022/05/16 08:56:12;;;;;;;0.70;0.70;;;;;;;23.59;42.14;99869.16;4938082;29;20111;-65
2022/05/16 08:58:44;;;;;;;1.05;0.95;;;;;;;24.00;42.57;99906.13;4938004;29;20139;-66
2022/05/16 09:01:19;;;;;;;1.85;1.58;;;;;;;23.76;42.73;99850.91;4937117;29;20063;-64
2022/05/16 09:03:51;;;;;;;1.17;0.90;;;;;;;23.92;43.32;99864.81;4938261;29;20066;-66
2022/05/16 09:06:26;;;;;;;0.68;0.60;;;;;;;24.18;42.41;99899.16;4937851;29;20055;-66
2022/05/16 09:09:03;;;;;;;0.95;0.70;;;;;;;24.02;42.69;99904.28;4937938;29;20138;-65
2022/05/16 09:11:44;;;;;;;0.82;0.77;;;;;;;24.09;43.00;99899.66;4938046;29;20055;-65
2022/05/16 09:14:30;;;;;;;1.73;1.33;;;;;;;24.15;43.19;99904.53;4937692;29;20063;-65
2022/05/16 09:17:03;;;;;;;1.35;1.25;;;;;;;24.38;42.78;99898.94;4937689;29;20079;-66
2022/05/16 09:19:58;;;;;;;1.95;0.90;;;;;;;24.73;42.27;99897.88;4937662;29;20094;-65
2022/05/16 09:22:33;;;;;;;0.50;0.50;;;;;;;24.90;40.35;99905.66;4936545;29;20051;-66
2022/05/16 09:25:13;;;;;;;0.60;0.60;;;;;;;25.00;40.64;99896.34;4937575;29;20052;-69
2022/05/16 09:30:30;;;;;;;4.78;1.45;;;;;;;24.16;40.73;99781.00;4936782;29;20446;-65
2022/05/16 09:33:14;;;;;;;1.10;1.00;;;;;;;24.76;40.07;99892.50;4937510;29;20115;-65
2022/05/16 09:36:01;;;;;;;2.08;1.20;;;;;;;24.74;39.59;99889.09;4937659;29;20498;-66
2022/05/16 09:38:34;;;;;;;5.47;0.77;;;;;;;24.82;40.24;99866.06;4937219;29;20059;-67
2022/05/16 09:41:15;;;;;;;1.10;1.00;;;;;;;25.05;39.96;99883.88;4937251;29;20060;-67
2022/05/16 09:43:56;;;;;;;0.52;0.52;;;;;;;25.23;39.69;99882.84;4937369;29;20482;-67
2022/05/16 09:46:39;;;;;;;0.70;0.70;;;;;;;25.38;39.15;99882.88;4920525;29;20103;-65
2022/05/16 09:49:12;;;;;;;0.73;0.60;;;;;;;25.54;39.74;99875.84;4937188;29;20426;-66
2022/05/16 09:51:48;;;;;;;1.27;1.10;;;;;;;25.55;38.81;99878.41;4937416;29;20082;-65
2022/05/16 09:54:26;;;;;;;1.33;1.08;;;;;;;25.44;37.86;99880.78;4937115;29;20466;-66
2022/05/16 09:57:07;;;;;;;1.73;1.23;;;;;;;25.60;38.27;99872.88;4936940;29;20104;-66
2022/05/16 09:59:43;;;;;;;4.75;1.75;;;;;;;25.67;37.84;99874.22;4936971;29;20048;-66
2022/05/16 10:02:25;;;;;;;0.60;0.60;;;;;;;25.67;38.63;99853.28;4936973;29;20055;-67
2022/05/16 10:04:59;;;;;;;0.70;0.70;;;;;;;25.55;37.93;99873.16;4936709;29;20139;-66
2022/05/16 10:07:32;;;;;;;1.45;1.35;;;;;;;25.26;37.57;99867.00;4936822;29;20060;-66
2022/05/16 10:10:02;;;;;;;0.60;0.60;;;;;;;25.30;37.90;99868.50;4936264;29;20063;-67
2022/05/16 10:12:34;;;;;;;0.60;0.60;;;;;;;25.38;37.82;99869.81;4937002;29;20131;-67
2022/05/16 10:15:06;;;;;;;1.35;1.25;;;;;;;25.56;38.47;99866.97;4936637;29;20078;-66
2022/05/16 10:17:40;;;;;;;0.75;0.60;;;;;;;25.60;37.88;99865.03;4936854;29;20115;-66
2022/05/16 10:20:16;;;;;;;0.75;0.75;;;;;;;25.45;37.45;99864.19;4936819;29;20056;-67
2022/05/16 10:22:46;;;;;;;0.50;0.50;;;;;;;25.40;37.18;99858.34;4937018;29;20067;-67
2022/05/16 10:25:39;;;;;;;0.80;0.80;;;;;;;25.46;36.62;99862.41;4936529;29;20055;-66
2022/05/16 10:28:24;;;;;;;0.60;0.60;;;;;;;25.84;36.29;99850.50;4936662;29;20051;-65
2022/05/16 10:33:45;;;;;;;1.52;0.98;;;;;;;26.08;36.43;99843.78;4936392;29;20083;-66
2022/05/16 10:36:23;;;;;;;0.98;0.73;;;;;;;25.83;36.74;99848.81;4936662;29;20460;-66
2022/05/16 10:39:02;;;;;;;1.15;0.80;;;;;;;25.95;38.20;99855.91;4936390;29;20477;-66
2022/05/16 10:41:37;;;;;;;2.22;1.77;;;;;;;26.08;38.74;99841.16;4936604;29;20114;-67
2022/05/16 10:44:18;;;;;;;1.42;0.90;;;;;;;26.27;38.32;99841.72;4936372;29;20056;-65
2022/05/16 10:46:56;;;;;;;0.68;0.68;;;;;;;26.04;37.31;99842.25;4936231;29;20164;-65
2022/05/16 10:49:47;;;;;;;0.88;0.80;;;;;;;25.95;37.21;99840.22;4936219;29;20064;-67
2022/05/16 10:52:33;;;;;;;1.00;0.90;;;;;;;26.06;36.88;99843.00;4936324;29;20510;-66
2022/05/16 10:55:03;;;;;;;0.60;0.60;;;;;;;25.80;36.22;99776.59;4936217;29;20056;-65
2022/05/16 10:58:04;;;;;;;0.60;0.60;;;;;;;26.23;36.26;99834.13;4936117;29;20055;-65
2022/05/16 11:00:36;;;;;;;1.40;1.15;;;;;;;26.21;36.44;99834.25;4931110;29;20054;-65
2022/05/16 11:03:35;;;;;;;0.60;0.60;;;;;;;26.33;36.51;99820.38;4936089;29;20498;-66
2022/05/16 11:06:23;;;;;;;0.88;0.88;;;;;;;26.51;36.71;99831.50;4934640;29;20047;-66
2022/05/16 11:09:00;;;;;;;0.50;0.50;;;;;;;26.53;37.38;99817.34;4936293;29;20545;-66
2022/05/16 11:11:36;;;;;;;0.68;0.63;;;;;;;26.68;37.84;99806.84;4935793;29;20514;-67
2022/05/16 11:14:13;;;;;;;1.63;1.30;;;;;;;26.98;38.21;99807.47;4935885;29;20134;-66
2022/05/16 11:16:50;;;;;;;0.65;0.65;;;;;;;27.05;36.77;99808.75;4935020;29;20382;-67
2022/05/16 11:19:32;;;;;;;1.75;0.77;;;;;;;26.92;38.01;99800.03;4935949;29;20079;-66
2022/05/16 11:22:07;;;;;;;0.52;0.52;;;;;;;26.73;37.45;99805.56;4935848;29;20055;-67
2022/05/16 11:24:43;;;;;;;0.40;0.40;;;;;;;26.85;36.58;99802.19;4936146;29;20146;-66
2022/05/16 11:27:23;;;;;;;1.40;1.17;;;;;;;26.85;36.25;99801.38;4935911;29;20150;-66
2022/05/16 11:30:09;;;;;;;1.42;0.98;;;;;;;27.04;36.33;99807.09;4934901;29;20051;-66
2022/05/16 11:32:56;;;;;;;1.95;1.25;;;;;;;27.28;36.83;99803.63;4935816;29;20502;-66
2022/05/16 11:35:37;;;;;;;5.18;2.25;;;;;;;27.52;35.67;99803.78;4936189;29;20056;-66
2022/05/16 11:38:44;;;;;;;1.35;1.10;;;;;;;27.81;36.79;99800.00;4935844;29;20063;-66
2022/05/16 11:41:26;;;;;;;2.78;0.80;;;;;;;27.88;35.40;99801.25;4931730;29;20098;-66
2022/05/16 11:44:20;;;;;;;0.75;0.70;;;;;;;27.85;36.23;99796.25;4935747;29;20059;-66
2022/05/16 11:46:54;;;;;;;0.50;0.50;;;;;;;27.92;36.71;99792.25;4938109;29;20051;-67
2022/05/16 11:49:52;;;;;;;1.35;1.25;;;;;;;27.87;36.71;99794.34;4938203;29;20048;-66
2022/05/16 11:52:53;;;;;;;5.20;1.98;;;;;;;28.06;36.17;99788.66;4939490;29;20055;-66
2022/05/16 12:00:53;;;;;;;0.50;0.50;;;;;;;27.95;36.52;99774.59;4953656;29;20051;-67
2022/05/16 12:03:23;;;;;;;0.50;0.50;;;;;;;28.00;36.86;99781.25;4938955;29;20052;-67
2022/05/16 12:06:12;;;;;;;0.70;0.70;;;;;;;27.63;36.67;99785.56;4943065;29;20051;-67
2022/05/16 12:08:49;;;;;;;0.65;0.65;;;;;;;27.24;36.35;99782.97;4956875;29;20094;-66
2022/05/16 12:11:23;;;;;;;1.02;0.93;;;;;;;27.10;36.22;99780.44;4957865;29;20406;-66
2022/05/16 12:14:23;;;;;;;0.80;0.80;;;;;;;27.11;35.81;99779.53;4957871;29;20059;-66
2022/05/16 12:16:54;;;;;;;;;;;;;;;27.26;36.48;99775.84;4958560;29;20106;-68
2022/05/16 12:19:30;;;;;;;0.82;0.77;;;;;;;27.52;36.28;99772.31;4958210;29;20283;-66
2022/05/16 12:22:04;;;;;;;0.82;0.80;;;;;;;27.35;36.09;99738.53;4957814;29;20121;-66
2022/05/16 12:25:01;;;;;;;0.55;0.55;;;;;;;27.56;36.25;99763.31;4957839;29;20497;-66
2022/05/16 12:27:35;;;;;;;0.95;0.93;;;;;;;27.39;35.71;99762.78;4952135;29;20047;-66
2022/05/16 12:30:08;;;;;;;0.70;0.70;;;;;;;27.22;35.84;99742.94;4957718;29;20044;-66
2022/05/16 12:32:56;;;;;;;1.98;1.15;;;;;;;27.30;36.38;99750.28;4957795;29;20387;-67
2022/05/16 12:35:45;;;;;;;0.50;0.50;;;;;;;27.41;36.12;99746.00;4957483;29;20059;-66
2022/05/16 12:38:18;;;;;;;;;;;;;;;27.44;36.27;99743.19;4958036;29;20055;-67
2022/05/16 12:41:12;;;;;;;0.82;0.75;;;;;;;27.31;37.03;99737.06;4957811;29;19970;-67
2022/05/16 12:44:04;;;;;;;0.73;0.73;;;;;;;27.30;37.47;99740.63;4948068;29;20069;-67
2022/05/16 12:46:55;;;;;;;0.85;0.85;;;;;;;27.26;37.55;99731.28;4957340;29;20497;-66
2022/05/16 12:49:53;;;;;;;0.63;0.63;;;;;;;27.16;37.42;99730.25;4957628;29;20055;-67
2022/05/16 12:52:55;;;;;;;0.70;0.70;;;;;;;27.17;37.50;99724.06;4957603;29;20055;-66
2022/05/16 12:55:45;;;;;;;0.60;0.60;;;;;;;27.39;37.29;99729.53;4957164;29;20055;-66